createdAt,value
2023-03-06T00:17:47.196Z,10.93
2023-03-06T00:31:07.783Z,13.30
2023-03-06T00:35:00.615Z,9.52
2023-03-06T00:38:53.258Z,11.52
2023-03-06T00:42:46.906Z,9.10
2023-03-06T00:46:39.568Z,11.18
2023-03-06T00:50:32.480Z,12.98
2023-03-06T00:54:53.017Z,10.48
2023-03-06T00:58:46.926Z,12.23
2023-03-06T01:02:56.509Z,8.43
2023-03-06T01:11:01.746Z,10.57
2023-03-06T01:14:54.927Z,11.20
2023-03-06T01:18:48.093Z,8.50
2023-03-06T01:22:40.976Z,11.55
2023-03-06T01:26:34.736Z,11.23
2023-03-06T01:30:27.613Z,12.35
2023-03-06T01:34:20.394Z,11.07
2023-03-06T01:42:34.617Z,16.20
2023-03-06T01:46:30.903Z,21.02
2023-03-06T01:50:24.092Z,13.27
2023-03-06T01:54:28.751Z,12.48
2023-03-06T01:58:22.612Z,12.40
2023-03-06T02:02:15.808Z,10.43
2023-03-06T02:06:09.580Z,11.13
2023-03-06T02:10:02.406Z,10.90
2023-03-06T02:13:55.575Z,8.25
2023-03-06T02:17:52.916Z,8.73
2023-03-06T02:21:45.716Z,7.68
2023-03-06T02:30:15.393Z,9.40
2023-03-06T02:34:40.026Z,7.95
2023-03-06T02:38:44.694Z,7.40
2023-03-06T02:42:37.369Z,7.78
2023-03-06T02:46:33.974Z,8.05
2023-03-06T02:54:55.328Z,6.53
2023-03-06T03:25:41.558Z,7.82
2023-03-06T03:29:34.744Z,9.63
2023-03-06T03:33:27.345Z,10.30
2023-03-06T03:37:20.147Z,8.55
2023-03-06T03:54:02.988Z,12.93
2023-03-06T03:57:56.007Z,19.15
2023-03-06T04:01:49.528Z,15.77
2023-03-06T04:05:42.660Z,11.95
2023-03-06T04:09:35.419Z,12.13
2023-03-06T04:13:28.388Z,13.13
2023-03-06T04:17:21.002Z,11.90
2023-03-06T04:21:14.695Z,11.00
2023-03-06T04:25:07.530Z,10.00
2023-03-06T04:29:00.240Z,11.27
2023-03-06T04:32:52.918Z,12.20
2023-03-06T04:36:45.901Z,9.60
2023-03-06T04:44:52.554Z,10.80
2023-03-06T04:53:22.773Z,10.32
2023-03-06T04:57:16.279Z,9.70
2023-03-06T05:01:09.251Z,12.57
2023-03-06T05:05:02.329Z,10.75
2023-03-06T05:13:09.857Z,12.25
2023-03-06T05:17:02.549Z,10.15
2023-03-06T05:20:59.628Z,12.05
2023-03-06T05:24:52.807Z,11.45
2023-03-06T05:28:45.784Z,9.05
2023-03-06T05:32:38.754Z,14.02
2023-03-06T05:36:31.532Z,10.82
2023-03-06T05:40:24.319Z,9.85
2023-03-06T05:52:58.927Z,13.27
2023-03-06T06:01:28.606Z,16.38
2023-03-06T06:05:21.299Z,15.05
2023-03-06T06:09:14.498Z,25.20
2023-03-06T06:13:07.515Z,15.07
2023-03-06T06:17:01.223Z,12.25
2023-03-06T06:25:15.467Z,13.40
2023-03-06T07:00:34.763Z,18.60
2023-03-06T07:04:27.365Z,16.65
2023-03-06T07:08:20.003Z,16.73
2023-03-06T07:12:12.773Z,14.75
2023-03-06T07:16:05.751Z,19.23
2023-03-06T07:19:59.784Z,18.35
2023-03-06T07:23:52.478Z,17.25
2023-03-06T07:27:51.055Z,13.30
2023-03-06T07:31:47.003Z,14.45
2023-03-06T07:35:41.441Z,12.20
2023-03-06T07:39:34.211Z,15.68
2023-03-06T07:43:27.046Z,17.08
2023-03-06T07:47:19.762Z,14.80
2023-03-06T07:51:18.371Z,16.42
2023-03-06T07:55:11.732Z,14.85
2023-03-06T07:59:04.395Z,18.33
2023-03-06T08:02:57.248Z,19.50
2023-03-06T08:06:49.876Z,21.88
2023-03-06T08:10:48.488Z,21.75
2023-03-06T08:14:41.181Z,18.77
2023-03-06T08:18:34.411Z,14.73
2023-03-06T08:22:27.215Z,17.63
2023-03-06T08:26:23.874Z,15.20
2023-03-06T08:30:16.684Z,17.95
2023-03-06T08:34:12.747Z,24.10
2023-03-06T08:38:05.363Z,17.63
2023-03-06T08:41:58.307Z,13.10
2023-03-06T08:45:55.846Z,15.90
2023-03-06T08:49:49.767Z,18.08
2023-03-06T08:53:44.541Z,17.48
2023-03-06T08:57:38.089Z,13.68
2023-03-06T09:01:34.667Z,12.65
2023-03-06T09:05:28.425Z,15.93
2023-03-06T09:09:21.715Z,14.02
2023-03-06T09:13:15.543Z,13.73
2023-03-06T09:17:09.227Z,13.93
2023-03-06T09:21:04.759Z,26.15
2023-03-06T09:24:58.442Z,20.85
2023-03-06T09:28:52.061Z,21.17
2023-03-06T09:32:46.314Z,17.23
2023-03-06T09:36:53.706Z,17.42
2023-03-06T09:40:58.168Z,23.13
2023-03-06T09:44:56.957Z,22.45
2023-03-06T09:49:16.121Z,19.35
2023-03-06T09:57:31.314Z,18.30
2023-03-06T10:01:29.018Z,20.02
2023-03-06T10:05:29.184Z,21.00
2023-03-06T10:09:28.848Z,26.00
2023-03-06T10:13:29.343Z,28.13
2023-03-06T10:17:24.121Z,25.20
2023-03-06T10:21:48.634Z,24.38
2023-03-06T10:26:16.217Z,23.45
2023-03-06T10:30:40.423Z,22.20
2023-03-06T10:34:38.666Z,19.92
2023-03-06T10:38:31.214Z,23.58
2023-03-06T10:42:24.924Z,18.45
2023-03-06T10:46:28.814Z,21.40
2023-03-06T10:50:27.862Z,23.75
2023-03-06T10:54:20.808Z,20.40
2023-03-06T10:58:27.193Z,22.83
2023-03-06T11:02:34.185Z,21.75
2023-03-06T11:06:37.934Z,21.67
2023-03-06T11:10:32.229Z,17.08
2023-03-06T11:14:27.474Z,16.75
2023-03-06T11:18:26.429Z,19.48
2023-03-06T11:22:22.196Z,17.65
2023-03-06T11:26:18.062Z,19.80
2023-03-06T11:30:20.370Z,20.75
2023-03-06T11:34:30.894Z,18.55
2023-03-06T11:38:38.160Z,19.60
2023-03-06T11:46:52.903Z,16.83
2023-03-06T11:54:38.419Z,31.42
2023-03-06T11:58:46.542Z,18.45
2023-03-06T12:07:07.537Z,21.38
2023-03-06T12:11:19.818Z,24.63
2023-03-06T12:15:38.678Z,18.60
2023-03-06T12:19:57.784Z,22.38
2023-03-06T12:24:12.586Z,19.70
2023-03-06T12:28:20.577Z,20.90
2023-03-06T12:36:33.804Z,20.92
2023-03-06T12:40:40.235Z,19.63
2023-03-06T12:44:49.663Z,21.13
2023-03-06T12:48:46.149Z,19.30
2023-03-06T12:52:38.838Z,17.95
2023-03-06T12:56:33.238Z,17.95
2023-03-06T13:00:35.377Z,18.58
2023-03-06T13:04:36.061Z,20.58
2023-03-06T13:08:37.721Z,24.65
2023-03-06T13:12:45.513Z,17.70
2023-03-06T13:20:44.302Z,21.88
2023-03-06T13:24:37.808Z,21.67
2023-03-06T13:28:40.827Z,18.33
2023-03-06T13:32:35.892Z,18.77
2023-03-06T13:36:39.916Z,21.20
2023-03-06T13:40:37.819Z,19.92
2023-03-06T13:44:30.984Z,16.70
2023-03-06T13:48:45.510Z,22.58
2023-03-06T13:52:53.686Z,30.85
2023-03-06T14:00:57.950Z,19.20
2023-03-06T14:04:56.426Z,20.27
2023-03-06T14:08:49.537Z,17.30
2023-03-06T14:12:51.758Z,18.60
2023-03-06T14:16:50.825Z,19.17
2023-03-06T14:20:48.795Z,18.17
2023-03-06T14:24:51.013Z,18.40
2023-03-06T14:28:46.105Z,17.70
2023-03-06T14:32:40.553Z,17.80
2023-03-06T14:36:49.130Z,19.52
2023-03-06T14:40:45.031Z,26.48
2023-03-06T14:44:37.544Z,21.88
2023-03-06T14:48:42.133Z,17.05
2023-03-06T14:52:35.484Z,19.58
2023-03-06T14:56:28.574Z,17.20
2023-03-06T15:00:24.206Z,21.00
2023-03-06T15:04:53.992Z,16.55
2023-03-06T15:08:49.409Z,19.48
2023-03-06T15:12:41.972Z,18.65
2023-03-06T15:16:34.903Z,19.05
2023-03-06T15:20:48.008Z,22.58
2023-03-06T15:24:40.683Z,22.33
2023-03-06T15:28:38.974Z,20.23
2023-03-06T15:32:34.728Z,21.17
2023-03-06T15:36:30.022Z,20.00
2023-03-06T15:40:25.523Z,20.35
2023-03-06T15:44:18.674Z,21.73
2023-03-06T15:48:17.703Z,20.92
2023-03-06T15:52:11.060Z,17.50
2023-03-06T15:56:03.804Z,21.27
2023-03-06T15:59:58.041Z,18.10
2023-03-06T16:03:50.993Z,16.92
2023-03-06T16:07:44.341Z,16.00
2023-03-06T16:11:43.798Z,17.85
2023-03-06T16:15:45.456Z,20.90
2023-03-06T16:19:38.244Z,16.13
2023-03-06T16:23:31.282Z,18.63
2023-03-06T16:27:26.154Z,15.95
2023-03-06T16:31:18.845Z,19.65
2023-03-06T16:35:12.940Z,18.33
2023-03-06T16:39:06.390Z,26.77
2023-03-06T16:42:59.674Z,19.55
2023-03-06T16:46:52.866Z,23.63
2023-03-06T16:50:46.636Z,17.95
2023-03-06T16:54:39.768Z,20.98
2023-03-06T16:58:33.318Z,24.08
2023-03-06T17:02:26.358Z,20.45
2023-03-06T17:06:22.145Z,20.75
2023-03-06T17:10:16.928Z,24.45
2023-03-06T17:14:09.949Z,20.25
2023-03-06T17:18:03.142Z,26.77
2023-03-06T17:21:56.302Z,22.65
2023-03-06T17:25:49.534Z,21.00
2023-03-06T17:29:42.860Z,25.77
2023-03-06T17:33:35.757Z,22.05
2023-03-06T17:37:29.298Z,22.90
2023-03-06T17:41:25.241Z,18.88
2023-03-06T17:45:18.610Z,21.30
2023-03-06T17:49:11.465Z,23.45
2023-03-06T17:53:04.665Z,20.85
2023-03-06T17:57:01.509Z,23.50
2023-03-06T18:00:56.258Z,22.52
2023-03-06T18:04:49.742Z,19.95
2023-03-06T18:08:44.159Z,22.65
2023-03-06T18:12:37.882Z,19.00
2023-03-06T18:16:31.439Z,20.17
2023-03-06T18:20:25.364Z,24.38
2023-03-06T18:24:18.986Z,24.50
2023-03-06T18:28:12.145Z,22.83
2023-03-06T18:32:06.075Z,23.95
2023-03-06T18:36:03.814Z,20.95
2023-03-06T18:39:57.749Z,22.67
2023-03-06T18:43:56.824Z,24.75
2023-03-06T18:47:50.175Z,26.00
2023-03-06T18:51:44.557Z,32.35
2023-03-06T18:55:39.165Z,26.42
2023-03-06T18:59:32.331Z,28.10
2023-03-06T19:03:26.315Z,27.52
2023-03-06T19:07:20.682Z,27.50
2023-03-06T19:11:16.414Z,27.00
2023-03-06T19:15:10.277Z,28.30
2023-03-06T19:19:03.994Z,31.80
2023-03-06T19:22:57.578Z,33.20
2023-03-06T19:26:53.636Z,26.30
2023-03-06T19:30:47.107Z,28.95
2023-03-06T19:34:40.825Z,29.80
2023-03-06T19:38:36.860Z,25.48
2023-03-06T19:42:31.927Z,27.10
2023-03-06T19:46:27.408Z,22.67
2023-03-06T19:50:22.660Z,25.90
2023-03-06T19:54:16.180Z,24.55
2023-03-06T19:58:09.574Z,26.05
2023-03-06T20:02:03.343Z,25.52
2023-03-06T20:05:56.670Z,30.67
2023-03-06T20:09:55.064Z,26.73
2023-03-06T20:13:49.121Z,24.55
2023-03-06T20:17:42.650Z,29.05
2023-03-06T20:21:38.345Z,28.63
2023-03-06T20:25:32.366Z,28.20
2023-03-06T20:29:28.203Z,30.48
2023-03-06T20:33:23.994Z,30.38
2023-03-06T20:37:17.840Z,27.85
2023-03-06T20:41:37.922Z,23.00
2023-03-06T20:45:32.632Z,23.80
2023-03-06T20:49:32.230Z,27.83
2023-03-06T20:53:25.228Z,22.15
2023-03-06T20:57:22.442Z,26.00
2023-03-06T21:01:24.845Z,25.30
2023-03-06T21:05:18.333Z,23.27
2023-03-06T21:09:11.904Z,24.30
2023-03-06T21:13:04.927Z,28.92
2023-03-06T21:16:57.623Z,25.17
2023-03-06T21:20:51.442Z,23.33
2023-03-06T21:24:45.436Z,24.33
2023-03-06T21:28:38.409Z,23.17
2023-03-06T21:32:32.212Z,30.17
2023-03-06T21:36:26.087Z,27.50
2023-03-06T21:40:19.104Z,26.85
2023-03-06T21:44:11.722Z,24.42
2023-03-06T21:48:04.862Z,28.45
2023-03-06T21:51:57.580Z,27.67
2023-03-06T21:55:50.176Z,25.73
2023-03-06T21:59:42.910Z,27.15
2023-03-06T22:03:35.846Z,26.00
2023-03-06T22:07:29.271Z,24.73
2023-03-06T22:11:24.101Z,27.27
2023-03-06T22:15:17.104Z,29.35
2023-03-06T22:19:09.656Z,26.17
2023-03-06T22:23:02.480Z,27.92
2023-03-06T22:26:55.112Z,26.85
2023-03-06T22:30:47.721Z,27.30
2023-03-06T22:35:06.452Z,31.13
2023-03-06T23:55:39.669Z,28.13
2023-03-06T23:59:33.154Z,38.03
